Time;durP1;ratioP1;P1;durP2;ratioP2;P2;SDS_P1;SDS_P2;PMS_P1;PMS_P2;Temp;Humidity;BMP_temperature;BMP_pressure;BME280_temperature;BME280_humidity;BME280_pressure;Samples;Min_cycle;Max_cycle;Signal;HPM_P1;HPM_P2
2022/07/21 00:03:42;;;;;;;8.63;7.82;;;27.40;45.90;;;;;;4760482;56;21024;-33
2022/07/21 00:08:43;;;;;;;7.62;6.93;;;27.50;46.00;;;;;;4678762;56;21008;-33
2022/07/21 00:13:44;;;;;;;8.10;7.30;;;27.50;46.00;;;;;;4635754;56;21041;-31
2022/07/21 00:18:45;;;;;;;7.95;7.15;;;27.40;46.10;;;;;;4664630;56;21024;-29
2022/07/21 00:23:45;;;;;;;7.68;6.97;;;27.40;46.10;;;;;;4778903;56;21060;-31
2022/07/21 00:28:47;;;;;;;8.20;7.40;;;27.40;46.10;;;;;;4753425;56;21090;-28
2022/07/21 00:33:50;;;;;;;7.43;6.72;;;27.40;46.20;;;;;;4629878;56;21108;-29
2022/07/21 00:38:51;;;;;;;7.95;7.15;;;27.40;46.30;;;;;;4745750;56;21495;-29
2022/07/21 00:43:52;;;;;;;7.10;6.50;;;27.50;46.30;;;;;;4698312;56;21084;-30
2022/07/21 00:48:53;;;;;;;7.70;6.90;;;27.50;46.40;;;;;;4682152;56;21513;-32
2022/07/21 00:53:54;;;;;;;7.57;6.87;;;27.50;46.40;;;;;;4838623;56;21514;-33
2022/07/21 00:58:55;;;;;;;7.68;6.90;;;27.50;46.50;;;;;;4710041;56;21071;-32
2022/07/21 01:03:56;;;;;;;7.03;6.25;;;27.50;46.50;;;;;;4732906;56;21013;-31
2022/07/21 01:08:57;;;;;;;7.43;6.75;;;27.40;46.60;;;;;;4722729;56;21036;-32
2022/07/21 01:13:58;;;;;;;7.20;6.50;;;27.50;46.50;;;;;;4643697;56;21094;-34
2022/07/21 01:18:58;;;;;;;7.28;6.53;;;27.40;46.50;;;;;;4704025;56;21085;-34
2022/07/21 01:24:00;;;;;;;7.32;6.62;;;27.40;46.60;;;;;;4714284;56;21574;-35
2022/07/21 01:29:00;;;;;;;7.78;7.07;;;27.50;46.80;;;;;;4725012;56;21096;-32
2022/07/21 01:34:02;;;;;;;7.30;6.60;;;27.40;46.70;;;;;;4632195;56;21035;-33
2022/07/21 01:44:24;;;;;;;6.55;6.00;;;27.40;46.90;;;;;;4615103;56;21052;-32
2022/07/21 01:49:24;;;;;;;6.97;6.37;;;27.40;46.70;;;;;;4695312;56;21495;-25
2022/07/21 01:54:25;;;;;;;7.43;6.72;;;27.40;46.70;;;;;;4792662;56;21092;-33
2022/07/21 01:59:26;;;;;;;6.93;6.32;;;27.40;46.80;;;;;;4669458;56;21601;-33
2022/07/21 02:04:27;;;;;;;6.43;5.87;;;27.40;46.70;;;;;;4802525;56;21072;-33
2022/07/21 02:09:28;;;;;;;6.65;6.05;;;27.40;46.80;;;;;;4615312;60;21527;-32
2022/07/21 02:14:29;;;;;;;6.60;6.00;;;27.40;46.80;;;;;;4641575;56;21075;-29
2022/07/21 02:19:30;;;;;;;6.43;5.82;;;27.40;46.70;;;;;;4706527;56;21471;-31
2022/07/21 02:24:31;;;;;;;6.55;5.95;;;27.40;46.80;;;;;;4730822;56;21555;-34
2022/07/21 02:29:31;;;;;;;6.95;6.25;;;27.40;46.90;;;;;;4651723;56;21016;-33
2022/07/21 02:34:32;;;;;;;6.53;5.93;;;27.40;46.90;;;;;;4926404;56;21606;-34
2022/07/21 02:39:33;;;;;;;6.10;5.60;;;27.40;47.00;;;;;;4635914;56;21016;-29
2022/07/21 02:44:35;;;;;;;6.07;5.57;;;27.40;46.90;;;;;;4892180;56;21032;-31
2022/07/21 02:49:36;;;;;;;6.22;5.62;;;27.40;46.90;;;;;;4676908;56;21649;-35
2022/07/21 02:54:37;;;;;;;6.70;6.10;;;27.40;46.80;;;;;;4685414;56;21104;-32
2022/07/21 02:59:38;;;;;;;6.68;6.05;;;27.40;46.80;;;;;;4689526;56;21028;-31
2022/07/21 03:04:39;;;;;;;6.00;5.50;;;27.40;46.60;;;;;;4629510;56;21024;-35
2022/07/21 03:09:39;;;;;;;6.10;5.50;;;27.40;46.60;;;;;;4932422;56;21036;-34
2022/07/21 03:14:40;;;;;;;6.12;5.55;;;27.40;46.60;;;;;;4746561;56;21511;-31
2022/07/21 03:19:41;;;;;;;5.87;5.37;;;27.40;46.60;;;;;;4703769;56;21519;-33
2022/07/21 03:24:42;;;;;;;5.82;5.32;;;27.40;46.50;;;;;;4618752;56;21025;-31
2022/07/21 03:29:43;;;;;;;5.93;5.43;;;27.40;46.80;;;;;;4699279;56;21032;-30
2022/07/21 03:34:45;;;;;;;6.22;5.57;;;27.40;46.50;;;;;;4615092;60;21034;-30
2022/07/21 03:39:45;;;;;;;5.47;4.97;;;27.40;46.30;;;;;;4615485;60;21514;-32
2022/07/21 03:44:46;;;;;;;6.18;5.45;;;27.40;46.40;;;;;;4615726;60;21093;-33
2022/07/21 03:49:47;;;;;;;5.95;5.37;;;27.30;46.30;;;;;;4894122;56;21142;-31
2022/07/21 03:54:48;;;;;;;6.40;5.18;;;27.30;46.20;;;;;;5010427;56;21088;-30
2022/07/21 03:59:49;;;;;;;5.32;4.82;;;27.30;46.20;;;;;;5040059;56;21498;-26
2022/07/21 04:04:49;;;;;;;5.78;5.18;;;27.30;46.20;;;;;;4825140;56;21008;-30
2022/07/21 04:09:51;;;;;;;6.85;5.35;;;27.30;46.20;;;;;;4615465;60;21000;-31
2022/07/21 04:14:52;;;;;;;5.82;5.22;;;27.30;46.20;;;;;;4729410;56;21077;-34
2022/07/21 04:19:53;;;;;;;6.60;5.22;;;27.30;46.20;;;;;;4695764;56;21045;-29
2022/07/21 04:24:53;;;;;;;6.32;5.25;;;27.30;46.30;;;;;;4872800;56;21004;-29
2022/07/21 04:29:54;;;;;;;6.75;5.75;;;27.30;46.10;;;;;;4888728;56;21466;-32
2022/07/21 04:34:55;;;;;;;5.65;5.15;;;27.30;46.20;;;;;;4769685;56;21037;-32
2022/07/21 04:39:56;;;;;;;5.90;5.35;;;27.30;46.00;;;;;;4615375;60;21028;-31
2022/07/21 04:44:57;;;;;;;6.93;4.93;;;27.30;46.00;;;;;;4920888;56;21017;-33
2022/07/21 04:49:58;;;;;;;5.62;4.87;;;27.30;46.10;;;;;;4674464;56;21016;-31
2022/07/21 04:54:58;;;;;;;5.82;5.22;;;27.30;46.30;;;;;;4688639;56;21016;-31
2022/07/21 05:00:02;;;;;;;6.32;5.20;;;27.30;46.00;;;;;;4718324;56;21020;-34
2022/07/21 05:05:04;;;;;;;5.97;5.37;;;27.30;46.10;;;;;;4615350;60;21463;-31
2022/07/21 05:10:07;;;;;;;6.03;5.43;;;27.30;45.90;;;;;;4841112;56;20993;-35
2022/07/21 05:15:11;;;;;;;10.13;5.12;;;27.30;45.90;;;;;;4787841;56;21032;-27
2022/07/21 05:20:12;;;;;;;5.82;5.22;;;27.30;45.90;;;;;;4615476;60;21136;-33
2022/07/21 05:25:12;;;;;;;5.47;4.97;;;27.30;46.00;;;;;;4721645;56;21088;-31
2022/07/21 05:30:13;;;;;;;5.75;5.25;;;27.30;45.90;;;;;;4681707;56;21021;-30
2022/07/21 05:35:15;;;;;;;5.85;5.25;;;27.30;46.10;;;;;;4920204;56;21028;-29
2022/07/21 05:40:16;;;;;;;6.45;5.28;;;27.30;46.00;;;;;;4876643;56;21483;-30
2022/07/21 05:45:16;;;;;;;5.50;4.93;;;27.30;45.90;;;;;;4811046;56;21073;-30
2022/07/21 05:50:17;;;;;;;6.00;5.45;;;27.30;46.00;;;;;;4615638;56;21032;-29
2022/07/21 05:55:18;;;;;;;5.43;4.93;;;27.20;45.90;;;;;;4614670;57;21087;-28
2022/07/21 06:00:19;;;;;;;9.57;5.65;;;27.20;45.90;;;;;;4636246;56;21024;-28
2022/07/21 06:05:20;;;;;;;6.00;5.32;;;27.20;45.90;;;;;;4747262;56;21503;-31
2022/07/21 06:10:21;;;;;;;6.15;5.32;;;27.20;46.00;;;;;;4754257;56;21029;-32
2022/07/21 06:15:22;;;;;;;8.40;5.80;;;27.20;46.00;;;;;;4628694;56;21152;-30
2022/07/21 06:20:23;;;;;;;11.02;5.20;;;27.20;45.90;;;;;;4651982;56;21048;-33
2022/07/21 06:25:23;;;;;;;6.90;5.35;;;27.20;46.10;;;;;;4745539;56;21024;-31
2022/07/21 06:30:24;;;;;;;9.90;6.25;;;27.20;46.10;;;;;;4615273;56;21025;-31
2022/07/21 06:35:26;;;;;;;8.63;5.97;;;27.20;46.00;;;;;;4614594;56;21112;-28
2022/07/21 06:40:26;;;;;;;6.80;5.60;;;27.20;45.90;;;;;;4614869;60;21179;-33
2022/07/21 06:45:27;;;;;;;6.15;5.37;;;27.20;46.00;;;;;;4651127;56;21531;-34
2022/07/21 06:50:28;;;;;;;8.68;6.18;;;27.30;46.10;;;;;;4696536;56;21101;-31
2022/07/21 06:55:29;;;;;;;10.25;6.60;;;27.20;46.00;;;;;;4840094;56;21032;-30
2022/07/21 07:00:30;;;;;;;14.50;9.88;;;27.20;46.00;;;;;;4723559;56;21072;-28
2022/07/21 07:05:31;;;;;;;20.77;14.65;;;27.30;45.90;;;;;;4638474;56;21012;-31
2022/07/21 07:10:32;;;;;;;20.17;13.77;;;27.20;45.20;;;;;;4885430;56;21579;-30
2022/07/21 07:15:33;;;;;;;19.83;13.98;;;27.20;45.30;;;;;;4693803;56;21499;-28
2022/07/21 07:20:34;;;;;;;19.60;13.27;;;27.20;44.70;;;;;;4615202;56;21083;-30
2022/07/21 07:25:34;;;;;;;18.67;13.40;;;27.30;45.20;;;;;;4668298;56;21056;-31
2022/07/21 07:30:36;;;;;;;19.50;13.45;;;27.30;45.30;;;;;;4815584;56;21100;-26
2022/07/21 07:35:37;;;;;;;23.75;15.05;;;27.30;45.20;;;;;;4691283;56;21574;-30
2022/07/21 07:40:37;;;;;;;18.65;15.20;;;27.30;45.30;;;;;;4784348;56;21064;-28
2022/07/21 07:45:38;;;;;;;28.58;18.02;;;27.30;45.50;;;;;;4615255;56;21016;-29
2022/07/21 07:50:39;;;;;;;28.65;19.85;;;27.40;45.70;;;;;;4672206;56;21570;-25
2022/07/21 07:55:40;;;;;;;34.60;23.00;;;27.40;45.90;;;;;;4612940;60;21008;-25
2022/07/21 08:00:41;;;;;;;33.97;22.33;;;27.50;47.20;;;;;;4730858;56;21068;-30
2022/07/21 08:05:42;;;;;;;29.05;21.48;;;27.50;47.30;;;;;;4687740;56;21068;-28
2022/07/21 08:10:45;;;;;;;35.58;21.95;;;27.50;47.30;;;;;;4633701;56;21024;-30
2022/07/21 08:15:47;;;;;;;32.17;21.67;;;27.50;47.30;;;;;;4799236;56;21044;-30
2022/07/21 08:20:48;;;;;;;36.63;23.15;;;27.60;47.40;;;;;;4632067;56;21116;-34
2022/07/21 08:25:49;;;;;;;35.72;23.27;;;27.60;47.40;;;;;;4637770;56;21092;-28
2022/07/21 08:30:50;;;;;;;35.42;25.30;;;27.60;47.60;;;;;;4615268;60;21048;-27
2022/07/21 08:35:51;;;;;;;36.33;25.05;;;27.60;47.60;;;;;;4776401;56;21026;-32
2022/07/21 08:40:52;;;;;;;34.80;24.83;;;27.60;47.60;;;;;;4615241;60;21028;-27
2022/07/21 08:45:53;;;;;;;32.53;24.48;;;27.70;47.70;;;;;;4615225;60;21069;-31
2022/07/21 08:50:55;;;;;;;36.80;26.62;;;27.70;47.70;;;;;;4904646;56;21193;-30
2022/07/21 08:55:55;;;;;;;38.78;28.87;;;27.80;47.60;;;;;;4745266;56;21028;-29
2022/07/21 09:00:56;;;;;;;40.97;28.02;;;27.80;47.40;;;;;;4615061;60;21020;-25
2022/07/21 09:06:16;;;;;;;35.85;26.42;;;27.80;47.60;;;;;;4614938;60;21572;-26
2022/07/21 09:11:27;;;;;;;36.10;28.15;;;27.80;47.60;;;;;;4615021;60;21024;-29
2022/07/21 09:16:55;;;;;;;35.33;27.30;;;27.80;47.60;;;;;;4720070;56;21020;-26
2022/07/21 09:21:58;;;;;;;36.83;27.27;;;27.80;47.50;;;;;;4717489;56;21101;-21
2022/07/21 09:27:44;;;;;;;34.13;25.70;;;27.80;47.40;;;;;;4615278;60;21049;-25
2022/07/21 09:32:45;;;;;;;30.98;24.52;;;27.80;47.20;;;;;;4764253;56;21016;-29
2022/07/21 09:37:46;;;;;;;31.87;23.98;;;27.80;47.10;;;;;;4614415;60;21025;-29
2022/07/21 09:42:50;;;;;;;32.90;24.75;;;27.80;47.00;;;;;;4615190;60;21527;-30
2022/07/21 09:47:52;;;;;;;29.30;22.70;;;27.90;47.00;;;;;;4791218;56;21555;-26
2022/07/21 09:52:54;;;;;;;28.62;22.33;;;27.80;46.80;;;;;;4615227;57;21486;-29
2022/07/21 09:57:55;;;;;;;25.42;18.33;;;27.90;46.70;;;;;;4677696;56;21502;-28
2022/07/21 10:02:57;;;;;;;23.80;16.25;;;27.90;45.70;;;;;;4645935;56;21065;-26
2022/07/21 10:08:02;;;;;;;28.05;17.33;;;28.00;43.70;;;;;;4681630;56;21017;-26
2022/07/21 10:13:03;;;;;;;17.80;14.80;;;28.10;43.40;;;;;;4910791;56;21012;-27
2022/07/21 10:18:06;;;;;;;19.40;11.95;;;28.20;42.80;;;;;;4663820;56;21029;-27
2022/07/21 10:23:27;;;;;;;19.45;14.13;;;28.30;42.30;;;;;;5048801;56;21049;-29
2022/07/21 10:28:28;;;;;;;18.62;14.95;;;28.40;42.50;;;;;;4640973;56;21060;-31
2022/07/21 10:37:01;;;;;;;16.62;13.85;;;28.20;42.80;;;;;;4615241;56;21499;-39
2022/07/21 10:42:15;;;;;;;18.15;14.27;;;28.10;43.50;;;;;;4642629;56;21025;-36
2022/07/21 10:47:20;;;;;;;17.90;13.45;;;28.10;43.80;;;;;;4692546;56;21009;-30
2022/07/21 10:55:54;;;;;;;18.02;13.40;;;28.00;43.90;;;;;;4733387;56;21009;-33
2022/07/21 11:01:18;;;;;;;14.68;12.30;;;27.90;44.10;;;;;;4669970;56;21086;-29
2022/07/21 11:06:22;;;;;;;16.83;12.98;;;27.90;44.30;;;;;;4615170;60;21060;-30
2022/07/21 11:11:29;;;;;;;15.90;12.98;;;27.90;44.40;;;;;;4711700;56;21495;-32
2022/07/21 11:18:23;;;;;;;18.05;12.88;;;27.90;44.50;;;;;;4683227;56;21582;-31
2022/07/21 11:23:44;;;;;;;16.15;12.57;;;27.90;44.60;;;;;;4626323;56;21163;-29
2022/07/21 11:28:46;;;;;;;15.07;12.20;;;27.80;44.70;;;;;;4754545;56;21064;-34
2022/07/21 11:33:48;;;;;;;16.70;13.15;;;27.80;44.70;;;;;;4614647;60;21506;-31
2022/07/21 11:39:05;;;;;;;13.70;12.10;;;27.80;44.70;;;;;;4615345;60;21499;-29
2022/07/21 11:44:08;;;;;;;13.90;12.43;;;27.80;44.90;;;;;;4783624;56;21366;-33
2022/07/21 11:49:09;;;;;;;13.70;11.57;;;27.80;45.00;;;;;;4798488;56;21529;-30
2022/07/21 11:54:20;;;;;;;13.75;12.07;;;27.80;45.10;;;;;;4731800;56;21098;-32
2022/07/21 11:59:22;;;;;;;13.40;11.75;;;27.80;45.10;;;;;;4681670;56;21080;-29
2022/07/21 12:05:24;;;;;;;13.43;12.02;;;27.80;45.10;;;;;;4835398;56;21455;-34
2022/07/21 12:10:27;;;;;;;13.43;11.93;;;27.80;45.20;;;;;;4634920;56;21595;-34
2022/07/21 12:15:33;;;;;;;14.57;12.77;;;27.70;45.10;;;;;;4627737;56;21025;-31
2022/07/21 12:20:35;;;;;;;;;;;27.80;45.20;;;;;;4784275;56;21029;-37
2022/07/21 12:25:40;;;;;;;13.57;12.10;;;27.80;45.20;;;;;;4615411;56;20071;-29
2022/07/21 12:30:46;;;;;;;13.10;11.63;;;27.80;45.20;;;;;;4615228;60;21562;-33
2022/07/21 12:36:03;;;;;;;14.80;11.75;;;27.80;45.20;;;;;;4717244;56;21159;-33
2022/07/21 12:41:04;;;;;;;13.68;11.75;;;27.80;45.20;;;;;;4615162;60;21065;-31
2022/07/21 12:46:17;;;;;;;12.98;11.57;;;27.80;45.20;;;;;;4615145;60;21009;-31
2022/07/21 12:51:23;;;;;;;15.20;11.10;;;27.80;45.30;;;;;;4637897;56;21479;-35
2022/07/21 12:56:30;;;;;;;16.03;11.60;;;27.80;45.20;;;;;;4651958;56;21575;-29
2022/07/21 13:01:33;;;;;;;13.40;11.75;;;27.80;45.20;;;;;;4836839;56;21139;-32
2022/07/21 13:06:36;;;;;;;13.38;11.82;;;27.80;45.20;;;;;;4710901;56;21459;-30
2022/07/21 13:11:37;;;;;;;12.43;11.12;;;27.80;45.30;;;;;;4811938;56;21518;-28
2022/07/21 13:16:37;;;;;;;11.93;10.70;;;27.80;45.20;;;;;;4669473;56;21024;-30
2022/07/21 13:21:38;;;;;;;12.27;10.38;;;27.70;45.10;;;;;;4614783;60;21101;-29
2022/07/21 13:26:39;;;;;;;13.32;11.93;;;27.80;45.20;;;;;;4615454;60;21008;-29
2022/07/21 13:31:40;;;;;;;12.82;11.20;;;27.80;45.20;;;;;;4639097;56;21005;-29
2022/07/21 13:36:41;;;;;;;13.30;11.05;;;27.80;45.20;;;;;;4638355;56;21104;-29
2022/07/21 13:41:41;;;;;;;15.55;12.57;;;27.80;45.30;;;;;;4651985;56;21065;-27
2022/07/21 13:46:42;;;;;;;14.70;12.90;;;27.80;44.40;;;;;;4694763;56;21479;-29
2022/07/21 13:51:43;;;;;;;13.38;11.88;;;27.80;44.20;;;;;;4742560;56;21036;-32
2022/07/21 13:56:44;;;;;;;13.20;11.77;;;27.90;44.30;;;;;;4632118;56;21032;-29
2022/07/21 14:01:45;;;;;;;15.05;11.68;;;27.90;44.50;;;;;;4785460;56;21064;-30
2022/07/21 14:06:49;;;;;;;13.13;11.73;;;27.90;44.50;;;;;;4642517;56;21012;-28
2022/07/21 14:11:50;;;;;;;12.32;11.05;;;27.90;44.60;;;;;;4635413;56;21510;-29
2022/07/21 14:16:50;;;;;;;13.15;11.68;;;27.90;44.90;;;;;;4881129;56;21068;-28
2022/07/21 14:21:51;;;;;;;12.45;11.15;;;27.90;44.70;;;;;;4670719;56;21081;-35
2022/07/21 14:26:52;;;;;;;12.82;11.45;;;27.80;44.60;;;;;;4743447;56;21064;-33
2022/07/21 14:31:53;;;;;;;16.77;11.45;;;27.90;44.70;;;;;;4772930;56;21069;-29
2022/07/21 14:36:54;;;;;;;13.13;11.73;;;27.80;44.60;;;;;;4694864;56;21547;-29
2022/07/21 14:41:55;;;;;;;13.18;11.30;;;27.90;44.80;;;;;;4661122;56;21005;-30
2022/07/21 14:46:55;;;;;;;11.38;10.27;;;27.90;44.80;;;;;;4740798;56;20996;-30
2022/07/21 14:51:56;;;;;;;12.60;11.27;;;27.80;44.70;;;;;;4655202;56;21009;-29
2022/07/21 14:56:57;;;;;;;13.18;11.00;;;27.80;44.80;;;;;;4842788;56;21080;-32
2022/07/21 15:01:58;;;;;;;12.52;10.75;;;27.90;45.50;;;;;;4782847;56;20976;-32
2022/07/21 15:06:59;;;;;;;12.35;11.05;;;27.90;45.00;;;;;;4614806;60;21015;-35
2022/07/21 15:12:00;;;;;;;12.48;10.85;;;27.90;44.90;;;;;;4733965;56;21072;-33
2022/07/21 15:17:01;;;;;;;12.63;11.27;;;27.90;44.90;;;;;;4790306;56;21016;-31
2022/07/21 15:22:01;;;;;;;13.88;11.40;;;27.90;44.90;;;;;;4845521;56;21506;-33
2022/07/21 15:27:03;;;;;;;12.52;11.23;;;27.90;45.00;;;;;;4718585;56;21016;-30
2022/07/21 15:32:04;;;;;;;12.05;10.85;;;27.90;45.00;;;;;;4615378;60;21007;-32
2022/07/21 15:37:05;;;;;;;11.77;10.45;;;27.90;45.00;;;;;;4662203;56;21009;-31
2022/07/21 15:42:08;;;;;;;12.13;10.50;;;27.90;45.00;;;;;;5041240;56;21463;-33
2022/07/21 15:47:09;;;;;;;11.50;10.27;;;27.90;45.00;;;;;;4763307;56;21483;-31
2022/07/21 15:52:11;;;;;;;12.98;11.18;;;27.90;45.10;;;;;;4615675;56;21076;-30
2022/07/21 15:57:12;;;;;;;12.37;11.07;;;27.90;45.10;;;;;;4623643;56;21590;-35
2022/07/21 16:02:15;;;;;;;12.10;10.75;;;27.90;45.00;;;;;;4741666;56;21020;-32
2022/07/21 16:07:16;;;;;;;13.10;11.35;;;27.90;45.00;;;;;;4728375;56;21563;-31
2022/07/21 16:12:16;;;;;;;11.80;10.60;;;27.90;45.00;;;;;;4665687;56;21028;-33
2022/07/21 16:17:17;;;;;;;12.02;10.82;;;27.90;45.00;;;;;;4680821;56;21061;-31
2022/07/21 16:22:18;;;;;;;11.43;10.25;;;27.90;45.00;;;;;;4614584;60;21578;-30
2022/07/21 16:27:20;;;;;;;11.98;10.77;;;27.90;45.10;;;;;;4733291;56;21491;-30
2022/07/21 16:32:21;;;;;;;11.77;10.57;;;27.90;45.10;;;;;;4713133;56;21547;-32
2022/07/21 16:37:22;;;;;;;12.55;11.27;;;27.90;45.10;;;;;;4820499;56;21124;-30
2022/07/21 16:42:22;;;;;;;11.63;10.43;;;28.00;45.20;;;;;;4615446;60;21069;-32
2022/07/21 16:47:23;;;;;;;12.00;10.80;;;28.00;45.10;;;;;;4726646;56;21024;-32
2022/07/21 16:52:24;;;;;;;12.25;10.95;;;27.90;44.90;;;;;;4615337;60;21499;-28
2022/07/21 16:57:25;;;;;;;15.35;11.98;;;27.90;45.00;;;;;;4769712;56;21044;-30
2022/07/21 17:02:28;;;;;;;12.20;11.00;;;28.00;45.10;;;;;;4646836;56;21016;-29
2022/07/21 17:07:29;;;;;;;12.50;10.85;;;27.90;45.00;;;;;;4690222;56;21040;-30
2022/07/21 17:12:30;;;;;;;12.77;11.12;;;27.90;45.10;;;;;;4615597;56;21474;-28
2022/07/21 17:17:31;;;;;;;12.37;11.12;;;28.00;45.10;;;;;;4726141;56;21029;-32
2022/07/21 17:22:32;;;;;;;12.07;10.75;;;28.00;45.10;;;;;;4614530;60;21053;-33
2022/07/21 17:27:34;;;;;;;13.18;11.77;;;28.00;45.10;;;;;;4712702;56;21506;-29
2022/07/21 17:32:35;;;;;;;12.80;11.38;;;28.00;45.10;;;;;;4615198;60;21606;-30
2022/07/21 17:37:40;;;;;;;11.90;10.80;;;28.00;45.10;;;;;;4614547;56;21028;-30
2022/07/21 17:42:41;;;;;;;12.63;11.32;;;28.00;45.20;;;;;;4615288;60;21595;-28
2022/07/21 17:47:42;;;;;;;12.52;11.30;;;28.00;45.10;;;;;;4615334;56;21152;-31
2022/07/21 17:52:42;;;;;;;11.65;10.55;;;28.00;45.10;;;;;;4615505;56;21472;-29
2022/07/21 18:03:03;;;;;;;12.10;10.90;;;28.00;45.20;;;;;;5047537;56;21566;-30
2022/07/21 18:08:04;;;;;;;11.63;10.52;;;28.00;45.20;;;;;;4726241;56;21077;-31
2022/07/21 18:13:05;;;;;;;11.95;10.77;;;28.00;45.20;;;;;;4658426;56;20997;-39
2022/07/21 18:18:06;;;;;;;11.02;10.02;;;28.00;45.20;;;;;;4691362;56;21040;-32
2022/07/21 18:23:07;;;;;;;12.18;10.88;;;28.00;45.90;;;;;;4644316;56;21209;-29
2022/07/21 18:28:09;;;;;;;11.35;10.20;;;28.00;45.30;;;;;;4689013;56;21571;-32
2022/07/21 18:33:10;;;;;;;12.18;10.88;;;28.00;45.30;;;;;;4638844;56;21630;-31
2022/07/21 18:38:11;;;;;;;11.85;10.65;;;28.00;45.30;;;;;;4637614;56;21172;-33
2022/07/21 18:43:11;;;;;;;11.57;10.48;;;28.00;45.30;;;;;;4614991;60;21080;-33
2022/07/21 18:48:12;;;;;;;11.00;10.00;;;28.00;45.40;;;;;;4614718;60;21518;-29
2022/07/21 18:53:13;;;;;;;11.90;10.80;;;28.00;45.40;;;;;;4681874;56;21048;-31
2022/07/21 18:58:17;;;;;;;11.00;9.90;;;28.00;45.40;;;;;;4614312;56;21088;-29
2022/07/21 19:03:18;;;;;;;10.85;9.80;;;28.00;45.40;;;;;;4688887;56;21562;-34
2022/07/21 19:08:19;;;;;;;10.95;9.88;;;28.00;45.50;;;;;;4709897;56;21025;-33
2022/07/21 19:13:20;;;;;;;12.10;10.90;;;28.00;45.50;;;;;;4732260;56;21076;-32
2022/07/21 19:18:20;;;;;;;11.43;10.32;;;28.00;45.50;;;;;;4636762;56;21033;-33
2022/07/21 19:23:21;;;;;;;11.57;10.45;;;28.00;45.60;;;;;;4836326;56;21021;-34
2022/07/21 19:28:22;;;;;;;11.50;10.40;;;28.00;45.60;;;;;;4615182;60;21486;-33
2022/07/21 19:33:23;;;;;;;11.32;10.23;;;28.00;45.60;;;;;;4615304;56;21056;-27
2022/07/21 19:38:24;;;;;;;10.93;9.80;;;28.00;45.60;;;;;;4754786;56;21547;-30
2022/07/21 19:43:25;;;;;;;11.05;9.95;;;28.00;45.60;;;;;;4631972;56;21052;-32
2022/07/21 19:48:26;;;;;;;10.48;9.48;;;28.00;45.70;;;;;;4676394;56;21108;-33
2022/07/21 19:53:27;;;;;;;10.38;9.38;;;28.00;45.70;;;;;;4782258;56;21145;-34
2022/07/21 19:58:28;;;;;;;11.43;10.30;;;28.00;45.70;;;;;;4657503;56;21029;-30
2022/07/21 20:03:29;;;;;;;11.00;10.00;;;28.00;45.70;;;;;;4626118;56;21012;-30
2022/07/21 20:08:30;;;;;;;11.00;10.00;;;28.00;45.80;;;;;;4615466;60;21063;-30
2022/07/21 20:13:31;;;;;;;11.00;9.98;;;28.00;45.80;;;;;;4914096;56;21467;-31
2022/07/21 20:18:32;;;;;;;10.77;9.68;;;28.00;46.50;;;;;;4636887;56;21044;-31
2022/07/21 20:23:33;;;;;;;10.15;9.25;;;28.00;45.80;;;;;;4895417;56;21112;-35
2022/07/21 20:28:33;;;;;;;10.55;9.55;;;28.00;45.80;;;;;;4649838;56;21084;-31
2022/07/21 20:33:34;;;;;;;10.18;9.18;;;28.00;46.60;;;;;;4696794;56;21496;-32
2022/07/21 20:38:36;;;;;;;11.30;10.23;;;28.00;45.90;;;;;;4650680;56;21040;-32
2022/07/21 20:43:37;;;;;;;11.65;9.93;;;27.90;46.00;;;;;;4688759;56;21008;-30
2022/07/21 20:48:38;;;;;;;10.95;9.85;;;28.00;46.00;;;;;;4893602;56;21028;-34
2022/07/21 20:53:39;;;;;;;10.80;9.77;;;28.00;46.00;;;;;;4846717;56;21091;-29
2022/07/21 20:58:40;;;;;;;10.85;9.77;;;28.00;46.10;;;;;;4654500;56;21607;-31
2022/07/21 21:03:42;;;;;;;10.60;9.50;;;28.00;46.10;;;;;;4842189;56;21069;-31
2022/07/21 21:08:43;;;;;;;11.75;9.30;;;28.00;46.10;;;;;;4714772;56;21028;-30
2022/07/21 21:13:44;;;;;;;10.52;9.43;;;27.90;46.10;;;;;;4615672;60;21590;-29
2022/07/21 21:18:44;;;;;;;10.35;9.25;;;27.90;46.20;;;;;;4815863;56;21036;-29
2022/07/21 21:23:45;;;;;;;10.68;9.60;;;28.00;46.90;;;;;;4614489;57;21040;-31
2022/07/21 21:28:46;;;;;;;11.63;9.25;;;27.90;46.20;;;;;;4615381;60;21016;-32
2022/07/21 21:33:47;;;;;;;10.25;8.85;;;28.00;46.30;;;;;;4644787;56;21479;-28
2022/07/21 21:38:48;;;;;;;10.23;9.18;;;27.90;46.40;;;;;;4615360;60;21028;-30
2022/07/21 21:43:49;;;;;;;10.60;9.10;;;27.90;46.50;;;;;;4615208;56;21069;-30
2022/07/21 21:48:51;;;;;;;10.35;9.25;;;28.00;46.60;;;;;;4763329;56;21080;-31
2022/07/21 21:53:51;;;;;;;9.88;8.88;;;27.90;46.60;;;;;;4769658;56;21510;-30
2022/07/21 21:58:52;;;;;;;10.15;9.15;;;27.90;46.60;;;;;;4615322;60;21013;-34
2022/07/21 22:03:53;;;;;;;10.32;9.32;;;27.90;46.70;;;;;;5047464;56;21020;-33
2022/07/21 22:08:54;;;;;;;10.07;9.10;;;27.90;46.70;;;;;;4678635;56;21025;-35
2022/07/21 22:13:55;;;;;;;9.90;9.00;;;27.90;46.80;;;;;;4883429;56;21024;-30
2022/07/21 22:18:55;;;;;;;9.65;8.77;;;27.90;46.70;;;;;;4631517;56;21523;-29
2022/07/21 22:23:59;;;;;;;9.63;8.73;;;27.90;46.80;;;;;;4795112;56;21064;-30
2022/07/21 22:29:00;;;;;;;9.77;8.88;;;27.90;46.90;;;;;;4746471;56;21470;-35
2022/07/21 22:34:01;;;;;;;9.70;8.80;;;27.90;47.00;;;;;;4943325;56;21043;-34
2022/07/21 22:39:02;;;;;;;9.20;8.40;;;27.90;47.00;;;;;;4850908;56;21501;-30
2022/07/21 22:44:03;;;;;;;9.43;8.52;;;28.00;47.10;;;;;;4696894;56;21506;-28
2022/07/21 22:49:05;;;;;;;9.38;8.48;;;28.00;47.10;;;;;;4755758;56;21012;-28
2022/07/21 22:54:05;;;;;;;9.20;8.30;;;27.90;47.20;;;;;;4921071;56;21025;-33
2022/07/21 22:59:06;;;;;;;9.52;8.52;;;27.90;47.10;;;;;;4726608;56;21088;-31
2022/07/21 23:04:07;;;;;;;9.30;8.40;;;28.00;47.30;;;;;;4640950;56;21008;-31
2022/07/21 23:09:08;;;;;;;9.65;8.23;;;27.90;47.20;;;;;;4749643;56;21472;-29
2022/07/21 23:14:09;;;;;;;9.25;8.35;;;27.90;47.30;;;;;;4759600;56;21020;-33
2022/07/21 23:19:10;;;;;;;9.00;8.10;;;28.00;47.90;;;;;;4670608;56;21140;-36
2022/07/21 23:24:10;;;;;;;9.02;8.18;;;27.90;47.30;;;;;;4670619;56;21108;-35
2022/07/21 23:29:11;;;;;;;9.48;8.57;;;28.00;47.30;;;;;;4791619;56;21451;-27
2022/07/21 23:34:12;;;;;;;8.85;7.97;;;27.90;47.30;;;;;;4941907;56;21040;-29
2022/07/21 23:39:13;;;;;;;9.50;8.60;;;28.00;47.50;;;;;;4619143;56;21486;-30
2022/07/21 23:44:13;;;;;;;9.35;8.13;;;27.90;47.50;;;;;;4743037;56;21056;-30
2022/07/21 23:49:14;;;;;;;8.93;8.02;;;28.00;47.60;;;;;;4615682;57;21019;-28
2022/07/21 23:54:15;;;;;;;10.02;8.75;;;28.00;47.60;;;;;;4815571;56;21028;-28
2022/07/21 23:59:16;;;;;;;9.02;8.20;;;28.00;47.60;;;;;;4944502;56;21537;-29
